createdAt,value
2022-08-20T00:00:50.446Z,82.63
2022-08-20T00:01:51.460Z,82.47
2022-08-20T00:02:50.468Z,82.52
2022-08-20T00:03:53.308Z,82.54
2022-08-20T00:04:50.398Z,82.54
2022-08-20T00:05:50.407Z,83.03
2022-08-20T00:06:51.438Z,82.92
2022-08-20T00:07:50.391Z,82.98
2022-08-20T00:08:50.392Z,82.96
2022-08-20T00:09:50.376Z,82.81
2022-08-20T00:10:55.005Z,82.79
2022-08-20T00:11:51.321Z,82.90
2022-08-20T00:12:50.321Z,82.93
2022-08-20T00:13:50.321Z,82.82
2022-08-20T00:14:50.295Z,82.77
2022-08-20T00:15:50.290Z,82.78
2022-08-20T00:16:50.283Z,82.95
2022-08-20T00:17:50.283Z,82.96
2022-08-20T00:18:50.326Z,83.17
2022-08-20T00:19:50.248Z,83.17
2022-08-20T00:20:50.232Z,83.26
2022-08-20T00:21:50.199Z,83.22
2022-08-20T00:22:51.191Z,83.22
2022-08-20T00:23:50.171Z,83.32
2022-08-20T00:24:50.188Z,83.39
2022-08-20T00:25:50.167Z,83.34
2022-08-20T00:26:51.856Z,83.40
2022-08-20T00:27:50.204Z,83.52
2022-08-20T00:28:50.111Z,83.52
2022-08-20T00:29:50.123Z,83.53
2022-08-20T00:30:50.101Z,83.55
2022-08-20T00:31:50.107Z,83.58
2022-08-20T00:32:50.075Z,83.60
2022-08-20T00:33:50.066Z,83.36
2022-08-20T00:34:50.051Z,83.38
2022-08-20T00:35:50.054Z,83.41
2022-08-20T00:36:50.038Z,83.83
2022-08-20T00:37:50.030Z,83.93
2022-08-20T00:38:49.992Z,84.08
2022-08-20T00:39:50.049Z,83.81
2022-08-20T00:40:49.999Z,83.47
2022-08-20T00:41:49.973Z,83.42
2022-08-20T00:42:49.958Z,83.54
2022-08-20T00:43:49.965Z,83.60
2022-08-20T00:44:49.934Z,83.51
2022-08-20T00:45:49.916Z,83.52
2022-08-20T00:46:49.943Z,83.53
2022-08-20T00:47:51.325Z,83.48
2022-08-20T00:48:49.906Z,83.44
2022-08-20T00:49:49.890Z,83.41
2022-08-20T00:50:49.867Z,83.38
2022-08-20T00:51:49.868Z,83.34
2022-08-20T00:52:49.919Z,83.34
2022-08-20T00:53:49.828Z,83.34
2022-08-20T00:54:49.821Z,83.38
2022-08-20T00:55:49.806Z,83.49
2022-08-20T00:56:49.836Z,83.59
2022-08-20T00:58:00.769Z,83.60
2022-08-20T00:58:50.781Z,83.71
2022-08-20T00:59:49.773Z,83.85
2022-08-20T01:00:49.762Z,83.88
2022-08-20T01:01:56.314Z,84.01
2022-08-20T01:02:50.748Z,83.98
2022-08-20T01:03:49.708Z,84.03
2022-08-20T01:04:49.700Z,84.09
2022-08-20T01:05:49.688Z,84.17
2022-08-20T01:06:49.689Z,84.26
2022-08-20T01:07:49.755Z,84.22
2022-08-20T01:08:49.658Z,84.22
2022-08-20T01:09:59.138Z,84.23
2022-08-20T01:10:50.631Z,84.24
2022-08-20T01:11:49.622Z,84.23
2022-08-20T01:12:59.109Z,84.20
2022-08-20T01:13:50.593Z,84.26
2022-08-20T01:14:49.580Z,84.29
2022-08-20T01:15:49.583Z,84.37
2022-08-20T01:16:49.575Z,84.46
2022-08-20T01:17:49.596Z,84.60
2022-08-20T01:18:49.563Z,84.66
2022-08-20T01:19:49.521Z,84.55
2022-08-20T01:20:49.525Z,84.35
2022-08-20T01:21:50.332Z,84.26
2022-08-20T01:22:49.494Z,84.15
2022-08-20T01:23:49.495Z,84.14
2022-08-20T01:24:49.485Z,84.03
2022-08-20T01:25:49.456Z,84.08
2022-08-20T01:26:49.462Z,84.07
2022-08-20T01:27:53.237Z,84.10
2022-08-20T01:28:50.434Z,84.10
2022-08-20T01:29:49.405Z,84.21
2022-08-20T01:30:49.401Z,84.15
2022-08-20T01:31:49.393Z,84.29
2022-08-20T01:32:49.387Z,84.28
2022-08-20T01:33:49.371Z,84.33
2022-08-20T01:34:49.359Z,84.38
2022-08-20T01:35:49.342Z,84.48
2022-08-20T01:36:49.342Z,84.52
2022-08-20T01:37:49.386Z,84.60
2022-08-20T01:38:53.210Z,84.60
2022-08-20T01:39:50.349Z,84.56
2022-08-20T01:40:49.278Z,84.55
2022-08-20T01:41:49.268Z,84.55
2022-08-20T01:42:57.146Z,84.63
2022-08-20T01:43:50.296Z,84.58
2022-08-20T01:44:49.236Z,84.59
2022-08-20T01:45:49.950Z,84.73
2022-08-20T01:46:49.230Z,84.70
2022-08-20T01:47:49.773Z,84.64
2022-08-20T01:48:49.222Z,84.57
2022-08-20T01:49:49.181Z,84.49
2022-08-20T01:50:49.166Z,84.49
2022-08-20T01:51:49.149Z,84.45
2022-08-20T01:52:49.137Z,84.45
2022-08-20T01:53:49.129Z,84.53
2022-08-20T01:54:49.148Z,84.56
2022-08-20T01:55:49.098Z,84.53
2022-08-20T01:56:49.127Z,84.46
2022-08-20T01:57:49.124Z,84.33
2022-08-20T01:58:49.087Z,84.50
2022-08-20T01:59:50.056Z,84.44
2022-08-20T02:00:49.072Z,84.60
2022-08-20T02:01:49.072Z,84.63
2022-08-20T02:02:49.030Z,84.54
2022-08-20T02:03:49.052Z,84.72
2022-08-20T02:04:49.019Z,84.78
2022-08-20T02:05:49.003Z,84.92
2022-08-20T02:06:56.195Z,84.92
2022-08-20T02:07:50.029Z,85.18
2022-08-20T02:08:48.965Z,85.18
2022-08-20T02:09:48.979Z,85.16
2022-08-20T02:10:48.937Z,85.21
2022-08-20T02:11:48.933Z,85.24
2022-08-20T02:12:48.931Z,85.41
2022-08-20T02:13:48.912Z,85.38
2022-08-20T02:14:48.901Z,85.37
2022-08-20T02:15:48.868Z,85.46
2022-08-20T02:16:54.793Z,85.43
2022-08-20T02:17:49.873Z,85.45
2022-08-20T02:18:48.839Z,85.40
2022-08-20T02:19:48.826Z,85.44
2022-08-20T02:20:48.826Z,85.40
2022-08-20T02:21:48.807Z,85.39
2022-08-20T02:22:50.346Z,85.33
2022-08-20T02:23:48.784Z,85.38
2022-08-20T02:24:48.773Z,85.38
2022-08-20T02:25:48.765Z,85.52
2022-08-20T02:26:48.769Z,85.53
2022-08-20T02:27:48.734Z,85.65
2022-08-20T02:28:48.736Z,85.69
2022-08-20T02:29:48.709Z,85.66
2022-08-20T02:30:48.715Z,85.72
2022-08-20T02:32:24.284Z,85.76
2022-08-20T02:32:49.692Z,85.82
2022-08-20T02:34:22.147Z,85.78
2022-08-20T02:34:49.648Z,85.84
2022-08-20T02:35:48.663Z,85.86
2022-08-20T02:36:48.648Z,85.92
2022-08-20T02:37:48.597Z,85.90
2022-08-20T02:38:48.608Z,85.93
2022-08-20T02:39:48.674Z,86.01
2022-08-20T02:40:48.596Z,86.12
2022-08-20T02:41:48.563Z,86.23
2022-08-20T02:42:48.563Z,86.30
2022-08-20T02:43:48.534Z,86.29
2022-08-20T02:44:48.534Z,86.40
2022-08-20T02:45:48.517Z,86.33
2022-08-20T02:46:48.543Z,86.38
2022-08-20T02:47:48.498Z,86.22
2022-08-20T02:48:48.493Z,85.86
2022-08-20T02:49:48.475Z,85.94
2022-08-20T02:50:48.471Z,86.05
2022-08-20T02:51:48.459Z,86.17
2022-08-20T02:52:51.475Z,86.14
2022-08-20T02:53:48.430Z,86.20
2022-08-20T02:54:48.414Z,86.15
2022-08-20T02:55:48.403Z,86.25
2022-08-20T02:56:48.422Z,86.31
2022-08-20T02:57:48.502Z,86.30
2022-08-20T02:58:48.371Z,86.28
2022-08-20T02:59:48.359Z,86.29
2022-08-20T03:00:48.359Z,86.27
2022-08-20T03:01:48.385Z,86.29
2022-08-20T03:02:49.319Z,86.23
2022-08-20T03:03:48.311Z,86.10
2022-08-20T03:04:48.302Z,86.03
2022-08-20T03:05:48.293Z,86.00
2022-08-20T03:06:48.275Z,86.04
2022-08-20T03:07:48.288Z,86.07
2022-08-20T03:08:48.256Z,86.07
2022-08-20T03:09:48.241Z,86.07
2022-08-20T03:10:48.225Z,86.12
2022-08-20T03:11:48.214Z,86.49
2022-08-20T03:12:48.514Z,86.55
2022-08-20T03:13:48.194Z,86.51
2022-08-20T03:14:48.193Z,86.55
2022-08-20T03:15:48.174Z,86.59
2022-08-20T03:16:48.185Z,86.56
2022-08-20T03:17:48.182Z,86.65
2022-08-20T03:18:48.160Z,86.63
2022-08-20T03:19:48.775Z,86.52
2022-08-20T03:20:52.097Z,86.47
2022-08-20T03:21:48.106Z,86.52
2022-08-20T03:22:48.087Z,86.52
2022-08-20T03:23:48.129Z,86.46
2022-08-20T03:24:48.073Z,86.43
2022-08-20T03:25:48.754Z,86.44
2022-08-20T03:26:48.069Z,86.44
2022-08-20T03:27:49.985Z,86.43
2022-08-20T03:28:49.361Z,86.32
2022-08-20T03:29:48.024Z,86.36
2022-08-20T03:30:48.004Z,86.41
2022-08-20T03:31:47.989Z,86.41
2022-08-20T03:32:47.977Z,86.52
2022-08-20T03:33:52.691Z,86.74
2022-08-20T03:34:48.951Z,86.92
2022-08-20T03:35:47.938Z,86.69
2022-08-20T03:36:47.950Z,86.59
2022-08-20T03:37:48.432Z,86.50
2022-08-20T03:38:47.897Z,86.49
2022-08-20T03:39:47.943Z,86.42
2022-08-20T03:40:47.873Z,86.35
2022-08-20T03:41:47.869Z,86.32
2022-08-20T03:42:47.870Z,86.36
2022-08-20T03:43:47.849Z,86.36
2022-08-20T03:44:47.891Z,86.36
2022-08-20T03:45:48.828Z,86.34
2022-08-20T03:46:47.830Z,86.21
2022-08-20T03:47:47.803Z,86.21
2022-08-20T03:48:47.807Z,86.13
2022-08-20T03:49:47.777Z,86.14
2022-08-20T03:50:47.784Z,86.09
2022-08-20T03:51:57.575Z,86.20
2022-08-20T03:52:48.732Z,86.22
2022-08-20T03:53:47.746Z,86.10
2022-08-20T03:54:47.722Z,86.03
2022-08-20T03:55:54.364Z,86.00
2022-08-20T03:56:48.714Z,86.08
2022-08-20T03:57:47.684Z,86.26
2022-08-20T03:58:47.668Z,86.14
2022-08-20T03:59:54.667Z,86.11
2022-08-20T04:00:48.668Z,85.97
2022-08-20T04:01:47.668Z,85.91
2022-08-20T04:02:47.636Z,85.91
2022-08-20T04:03:50.908Z,85.93
2022-08-20T04:04:48.613Z,85.82
2022-08-20T04:05:47.586Z,85.71
2022-08-20T04:06:47.657Z,85.62
2022-08-20T04:07:47.564Z,85.61
2022-08-20T04:08:47.545Z,85.64
2022-08-20T04:09:47.541Z,85.61
2022-08-20T04:10:47.524Z,85.57
2022-08-20T04:11:47.536Z,85.57
2022-08-20T04:12:51.414Z,85.64
2022-08-20T04:13:49.242Z,85.65
2022-08-20T04:14:47.477Z,85.75
2022-08-20T04:15:47.475Z,85.73
2022-08-20T04:16:48.999Z,85.74
2022-08-20T04:17:47.449Z,85.68
2022-08-20T04:18:56.126Z,85.67
2022-08-20T04:19:48.437Z,85.69
2022-08-20T04:20:47.417Z,85.76
2022-08-20T04:21:47.426Z,85.71
2022-08-20T04:22:52.304Z,85.67
2022-08-20T04:23:48.387Z,85.67
2022-08-20T04:24:47.390Z,85.72
2022-08-20T04:25:47.371Z,85.72
2022-08-20T04:26:47.390Z,85.73
2022-08-20T04:27:47.330Z,85.73
2022-08-20T04:28:47.321Z,85.74
2022-08-20T04:29:47.323Z,85.77
2022-08-20T04:30:47.547Z,85.78
2022-08-20T04:31:47.303Z,85.83
2022-08-20T04:32:47.283Z,85.80
2022-08-20T04:33:47.275Z,85.71
2022-08-20T04:34:47.335Z,85.71
2022-08-20T04:35:47.252Z,85.72
2022-08-20T04:36:47.262Z,85.73
2022-08-20T04:37:47.229Z,85.83
2022-08-20T04:38:50.297Z,85.78
2022-08-20T04:39:47.280Z,85.81
2022-08-20T04:40:47.182Z,85.85
2022-08-20T04:41:47.187Z,85.85
2022-08-20T04:42:47.161Z,85.82
2022-08-20T04:43:48.153Z,85.81
2022-08-20T04:44:47.149Z,85.82
2022-08-20T04:45:47.131Z,85.82
2022-08-20T04:46:48.065Z,85.87
2022-08-20T04:47:47.126Z,86.01
2022-08-20T04:48:48.741Z,86.01
2022-08-20T04:49:47.076Z,85.95
2022-08-20T04:50:47.080Z,86.04
2022-08-20T04:51:47.047Z,86.00
2022-08-20T04:52:47.079Z,85.98
2022-08-20T04:53:52.277Z,86.13
2022-08-20T04:54:48.014Z,86.11
2022-08-20T04:55:47.005Z,86.12
2022-08-20T04:56:47.159Z,86.17
2022-08-20T04:57:47.005Z,86.17
2022-08-20T04:58:46.975Z,86.15
2022-08-20T04:59:46.962Z,86.19
2022-08-20T05:00:47.038Z,86.20
2022-08-20T05:01:46.937Z,86.15
2022-08-20T05:02:46.933Z,86.06
2022-08-20T05:03:46.935Z,86.06
2022-08-20T05:04:46.900Z,86.09
2022-08-20T05:05:46.888Z,86.08
2022-08-20T05:06:46.949Z,86.08
2022-08-20T05:07:47.901Z,86.12
2022-08-20T05:08:46.877Z,86.17
2022-08-20T05:09:46.839Z,86.26
2022-08-20T05:10:46.839Z,86.35
2022-08-20T05:11:46.827Z,86.34
2022-08-20T05:12:56.857Z,86.34
2022-08-20T05:13:47.846Z,86.35
2022-08-20T05:14:46.797Z,86.53
2022-08-20T05:15:46.799Z,86.71
2022-08-20T05:16:46.763Z,86.84
2022-08-20T05:17:46.747Z,86.78
2022-08-20T05:18:50.544Z,86.74
2022-08-20T05:19:47.720Z,86.71
2022-08-20T05:20:46.708Z,86.65
2022-08-20T05:21:46.702Z,86.60
2022-08-20T05:22:46.676Z,86.54
2022-08-20T05:23:46.700Z,86.55
2022-08-20T05:24:46.680Z,86.58
2022-08-20T05:25:46.685Z,86.85
2022-08-20T05:26:46.669Z,87.11
2022-08-20T05:27:47.864Z,87.02
2022-08-20T05:28:54.471Z,86.96
2022-08-20T05:29:47.617Z,86.94
2022-08-20T05:30:47.592Z,86.89
2022-08-20T05:31:46.593Z,86.87
2022-08-20T05:32:46.585Z,86.84
2022-08-20T05:33:46.584Z,86.83
2022-08-20T05:34:46.541Z,86.82
2022-08-20T05:35:46.584Z,86.78
2022-08-20T05:36:46.853Z,86.77
2022-08-20T05:37:46.513Z,86.75
2022-08-20T05:38:49.613Z,86.74
2022-08-20T05:39:46.535Z,86.75
2022-08-20T05:40:46.479Z,86.84
2022-08-20T05:41:46.484Z,86.85
2022-08-20T05:42:46.472Z,86.91
2022-08-20T05:43:46.465Z,86.93
2022-08-20T05:44:47.432Z,86.92
2022-08-20T05:45:46.424Z,86.92
2022-08-20T05:46:46.434Z,86.92
2022-08-20T05:47:46.424Z,86.98
2022-08-20T05:48:47.404Z,87.03
2022-08-20T05:49:46.385Z,87.05
2022-08-20T05:50:46.395Z,87.03
2022-08-20T05:51:46.347Z,86.98
2022-08-20T05:52:46.343Z,86.94
2022-08-20T05:53:46.336Z,86.92
2022-08-20T05:54:46.353Z,86.95
2022-08-20T05:55:46.305Z,86.90
2022-08-20T05:56:46.297Z,86.76
2022-08-20T05:57:46.311Z,86.77
2022-08-20T05:58:46.278Z,86.71
2022-08-20T05:59:46.282Z,86.62
2022-08-20T06:00:46.288Z,86.56
2022-08-20T06:01:46.275Z,86.52
2022-08-20T06:02:46.217Z,86.45
2022-08-20T06:03:46.209Z,86.41
2022-08-20T06:04:46.219Z,86.40
2022-08-20T06:05:47.190Z,86.38
2022-08-20T06:06:47.292Z,86.29
2022-08-20T06:07:46.164Z,85.87
2022-08-20T06:08:46.159Z,85.65
2022-08-20T06:09:46.160Z,85.71
2022-08-20T06:10:46.120Z,85.59
2022-08-20T06:11:46.111Z,85.35
2022-08-20T06:12:46.109Z,85.37
2022-08-20T06:13:46.110Z,85.40
2022-08-20T06:14:46.098Z,85.18
2022-08-20T06:15:46.080Z,85.13
2022-08-20T06:16:57.271Z,84.99
2022-08-20T06:17:47.042Z,84.99
2022-08-20T06:18:47.042Z,85.00
2022-08-20T06:19:46.085Z,85.02
2022-08-20T06:20:46.012Z,85.03
2022-08-20T06:21:46.002Z,84.97
2022-08-20T06:22:45.991Z,84.96
2022-08-20T06:23:56.780Z,84.92
2022-08-20T06:24:46.982Z,84.81
2022-08-20T06:25:45.952Z,84.78
2022-08-20T06:26:45.947Z,85.41
2022-08-20T06:27:45.928Z,85.44
2022-08-20T06:28:45.914Z,85.30
2022-08-20T06:29:45.911Z,85.34
2022-08-20T06:30:45.925Z,85.32
2022-08-20T06:31:45.892Z,85.34
2022-08-20T06:32:45.873Z,85.46
2022-08-20T06:33:45.854Z,85.65
2022-08-20T06:34:50.439Z,85.33
2022-08-20T06:35:46.853Z,85.15
2022-08-20T06:36:45.833Z,85.06
2022-08-20T06:37:45.816Z,84.81
2022-08-20T06:38:45.806Z,84.74
2022-08-20T06:39:45.807Z,84.32
2022-08-20T06:40:45.774Z,84.14
2022-08-20T06:41:45.794Z,84.12
2022-08-20T06:42:48.460Z,84.01
2022-08-20T06:43:45.746Z,84.12
2022-08-20T06:44:45.726Z,84.12
2022-08-20T06:45:45.765Z,83.86
2022-08-20T06:46:45.720Z,83.50
2022-08-20T06:47:45.699Z,83.29
2022-08-20T06:48:45.685Z,83.33
2022-08-20T06:49:45.684Z,83.50
2022-08-20T06:50:47.556Z,83.79
2022-08-20T06:51:45.667Z,83.81
2022-08-20T06:52:52.835Z,83.64
2022-08-20T06:53:46.646Z,83.47
2022-08-20T06:54:45.620Z,83.45
2022-08-20T06:55:48.434Z,83.43
2022-08-20T06:56:45.618Z,83.47
2022-08-20T06:57:45.589Z,83.61
2022-08-20T06:58:45.567Z,83.47
2022-08-20T06:59:54.017Z,83.47
2022-08-20T07:00:46.615Z,83.51
2022-08-20T07:01:45.637Z,83.39
2022-08-20T07:02:45.530Z,83.41
2022-08-20T07:03:54.219Z,83.48
2022-08-20T07:04:46.498Z,83.58
2022-08-20T07:05:45.529Z,83.71
2022-08-20T07:06:45.492Z,83.72
2022-08-20T07:07:45.479Z,83.56
2022-08-20T07:08:45.460Z,83.42
2022-08-20T07:09:45.451Z,83.32
2022-08-20T07:10:45.440Z,82.96
2022-08-20T07:11:45.443Z,83.14
2022-08-20T07:12:45.414Z,82.83
2022-08-20T07:13:45.441Z,82.28
2022-08-20T07:14:45.390Z,82.17
2022-08-20T07:15:45.395Z,82.39
2022-08-20T07:16:45.383Z,82.33
2022-08-20T07:17:45.385Z,82.10
2022-08-20T07:18:45.360Z,82.04
2022-08-20T07:19:45.333Z,82.07
2022-08-20T07:20:45.340Z,81.84
2022-08-20T07:21:45.330Z,82.02
2022-08-20T07:22:45.338Z,81.99
2022-08-20T07:23:45.293Z,81.73
2022-08-20T07:24:49.000Z,81.41
2022-08-20T07:25:45.271Z,81.71
2022-08-20T07:26:45.307Z,81.23
2022-08-20T07:27:45.250Z,81.51
2022-08-20T07:28:45.237Z,81.96
2022-08-20T07:29:45.221Z,82.08
2022-08-20T07:30:55.935Z,81.99
2022-08-20T07:31:48.093Z,81.28
2022-08-20T07:32:45.514Z,80.12
2022-08-20T07:33:45.193Z,79.00
2022-08-20T07:34:45.173Z,79.18
2022-08-20T07:35:45.169Z,79.46
2022-08-20T07:36:45.145Z,79.75
2022-08-20T07:37:45.167Z,79.90
2022-08-20T07:38:45.127Z,79.28
2022-08-20T07:39:45.169Z,79.17
2022-08-20T07:40:45.108Z,79.09
2022-08-20T07:41:53.463Z,78.81
2022-08-20T07:42:46.107Z,78.10
2022-08-20T07:43:45.060Z,77.07
2022-08-20T07:44:45.083Z,77.28
2022-08-20T07:45:45.246Z,77.15
2022-08-20T07:46:45.038Z,77.52
2022-08-20T07:47:45.054Z,76.48
2022-08-20T07:48:45.005Z,76.06
2022-08-20T07:49:45.046Z,75.95
2022-08-20T07:50:45.046Z,75.93
2022-08-20T07:51:45.009Z,76.12
2022-08-20T07:52:44.947Z,76.05
2022-08-20T07:53:44.947Z,75.45
2022-08-20T07:54:44.946Z,74.47
2022-08-20T07:55:51.168Z,74.90
2022-08-20T07:56:45.953Z,74.69
2022-08-20T07:57:44.908Z,73.74
2022-08-20T07:58:44.892Z,73.70
2022-08-20T07:59:44.884Z,73.04
2022-08-20T08:00:44.911Z,73.76
2022-08-20T08:01:44.854Z,72.87
2022-08-20T08:02:44.870Z,72.97
2022-08-20T08:03:50.487Z,73.41
2022-08-20T08:04:45.817Z,73.29
2022-08-20T08:05:44.835Z,73.35
2022-08-20T08:06:44.804Z,73.82
2022-08-20T08:07:44.813Z,73.36
2022-08-20T08:08:44.774Z,72.40
2022-08-20T08:09:44.755Z,71.90
2022-08-20T08:10:44.753Z,70.76
2022-08-20T08:11:47.485Z,70.19
2022-08-20T08:12:44.740Z,69.42
2022-08-20T08:13:44.716Z,69.10
2022-08-20T08:14:44.704Z,68.81
2022-08-20T08:15:44.707Z,68.04
2022-08-20T08:16:44.685Z,67.71
2022-08-20T08:17:44.667Z,66.27
2022-08-20T08:18:44.685Z,66.64
2022-08-20T08:19:44.649Z,66.54
2022-08-20T08:20:46.756Z,66.33
2022-08-20T08:21:44.615Z,66.49
2022-08-20T08:22:44.625Z,65.52
2022-08-20T08:23:44.599Z,65.22
2022-08-20T08:24:57.464Z,64.64
2022-08-20T08:25:45.591Z,63.88
2022-08-20T08:26:44.577Z,63.95
2022-08-20T08:27:44.578Z,63.00
2022-08-20T08:28:44.547Z,62.51
2022-08-20T08:29:44.541Z,62.50
2022-08-20T08:30:44.515Z,61.24
2022-08-20T08:31:44.546Z,60.91
2022-08-20T08:32:44.491Z,60.85
2022-08-20T08:33:44.492Z,61.37
2022-08-20T08:34:44.474Z,61.41
2022-08-20T08:35:44.487Z,59.24
2022-08-20T08:36:44.456Z,59.03
2022-08-20T08:37:44.440Z,59.86
2022-08-20T08:38:44.447Z,59.87
2022-08-20T08:39:44.476Z,59.25
2022-08-20T08:40:44.412Z,60.15
2022-08-20T08:41:44.393Z,59.18
2022-08-20T08:42:44.379Z,59.10
2022-08-20T08:43:44.362Z,59.40
2022-08-20T08:44:44.355Z,60.38
2022-08-20T08:45:44.364Z,61.22
2022-08-20T08:46:44.352Z,60.20
2022-08-20T08:47:44.328Z,61.08
2022-08-20T08:48:44.313Z,61.15
2022-08-20T08:49:44.302Z,61.88
2022-08-20T08:50:53.996Z,61.86
2022-08-20T08:51:45.301Z,62.77
2022-08-20T08:52:44.278Z,62.71
2022-08-20T08:53:44.260Z,62.66
2022-08-20T08:54:44.256Z,63.75
2022-08-20T08:55:44.234Z,64.72
2022-08-20T08:56:44.286Z,63.73
2022-08-20T08:57:45.235Z,64.26
2022-08-20T08:58:44.223Z,63.24
2022-08-20T08:59:48.494Z,62.98
2022-08-20T09:00:56.060Z,62.63
2022-08-20T09:01:54.850Z,62.38
2022-08-20T09:02:45.196Z,61.60
2022-08-20T09:03:44.150Z,61.95
2022-08-20T09:04:44.137Z,62.25
2022-08-20T09:05:44.177Z,61.24
2022-08-20T09:06:44.128Z,61.96
2022-08-20T09:07:44.117Z,61.90
2022-08-20T09:08:44.127Z,61.88
2022-08-20T09:09:44.091Z,61.03
2022-08-20T09:10:44.095Z,60.74
2022-08-20T09:11:44.083Z,60.76
2022-08-20T09:12:47.649Z,61.25
2022-08-20T09:13:44.021Z,61.82
2022-08-20T09:14:44.030Z,61.38
2022-08-20T09:15:44.032Z,61.92
2022-08-20T09:16:52.293Z,60.79
2022-08-20T09:17:44.980Z,61.28
2022-08-20T09:18:43.975Z,61.07
2022-08-20T09:19:43.959Z,61.11
2022-08-20T09:20:43.975Z,60.88
2022-08-20T09:21:43.936Z,61.02
2022-08-20T09:22:43.940Z,60.72
2022-08-20T09:23:43.917Z,59.97
2022-08-20T09:24:43.903Z,61.15
2022-08-20T09:25:43.921Z,59.99
2022-08-20T09:26:43.874Z,60.16
2022-08-20T09:27:43.879Z,59.81
2022-08-20T09:28:43.865Z,58.98
2022-08-20T09:29:43.854Z,58.94
2022-08-20T09:30:43.824Z,59.20
2022-08-20T09:31:43.874Z,59.45
2022-08-20T09:32:43.816Z,58.23
2022-08-20T09:33:43.793Z,57.38
2022-08-20T09:34:43.794Z,57.54
2022-08-20T09:35:43.771Z,57.09
2022-08-20T09:36:43.774Z,56.46
2022-08-20T09:37:43.748Z,57.11
2022-08-20T09:38:43.747Z,56.35
2022-08-20T09:39:43.761Z,56.85
2022-08-20T09:40:43.724Z,57.04
2022-08-20T09:41:43.739Z,56.67
2022-08-20T09:42:43.701Z,56.62
2022-08-20T09:43:43.682Z,56.83
2022-08-20T09:44:43.667Z,55.56
2022-08-20T09:45:43.659Z,55.18
2022-08-20T09:46:43.668Z,55.04
2022-08-20T09:47:54.761Z,55.71
2022-08-20T09:48:44.642Z,56.08
2022-08-20T09:49:43.624Z,55.90
2022-08-20T09:50:43.618Z,55.48
2022-08-20T09:51:43.591Z,55.70
2022-08-20T09:52:43.591Z,55.69
2022-08-20T09:53:43.573Z,56.01
2022-08-20T09:54:46.551Z,56.09
2022-08-20T09:55:43.539Z,55.99
2022-08-20T09:56:43.535Z,56.06
2022-08-20T09:57:43.546Z,55.37
2022-08-20T09:58:43.533Z,55.09
2022-08-20T09:59:43.524Z,55.42
2022-08-20T10:00:43.493Z,54.47
2022-08-20T10:01:43.548Z,54.25
2022-08-20T10:02:43.458Z,53.86
2022-08-20T10:03:43.483Z,54.37
2022-08-20T10:04:43.443Z,54.75
2022-08-20T10:05:43.437Z,54.47
2022-08-20T10:06:43.467Z,54.93
2022-08-20T10:07:43.431Z,55.93
2022-08-20T10:08:43.422Z,56.24
2022-08-20T10:09:43.391Z,55.55
2022-08-20T10:10:43.383Z,55.08
2022-08-20T10:11:43.387Z,55.24
2022-08-20T10:12:43.390Z,54.87
2022-08-20T10:13:43.364Z,55.12
2022-08-20T10:14:43.360Z,55.74
2022-08-20T10:15:43.332Z,55.24
2022-08-20T10:16:43.318Z,54.07
2022-08-20T10:17:43.295Z,53.53
2022-08-20T10:18:43.298Z,52.29
2022-08-20T10:19:43.279Z,53.18
2022-08-20T10:20:43.257Z,52.14
2022-08-20T10:21:43.259Z,51.89
2022-08-20T10:22:43.266Z,51.73
2022-08-20T10:23:43.245Z,51.97
2022-08-20T10:24:43.227Z,51.94
2022-08-20T10:25:43.219Z,51.24
2022-08-20T10:26:43.199Z,50.96
2022-08-20T10:27:43.194Z,51.36
2022-08-20T10:28:43.170Z,51.18
2022-08-20T10:29:46.884Z,50.95
2022-08-20T10:30:43.150Z,49.73
2022-08-20T10:31:43.131Z,49.55
2022-08-20T10:32:43.139Z,49.51
2022-08-20T10:33:43.130Z,48.85
2022-08-20T10:34:43.135Z,49.44
2022-08-20T10:35:43.101Z,50.20
2022-08-20T10:36:43.088Z,50.97
2022-08-20T10:37:43.073Z,51.28
2022-08-20T10:38:43.101Z,49.93
2022-08-20T10:39:43.072Z,49.29
2022-08-20T10:40:43.085Z,50.11
2022-08-20T10:41:44.036Z,48.36
2022-08-20T10:42:43.029Z,47.62
2022-08-20T10:43:43.020Z,46.15
2022-08-20T10:44:42.995Z,46.27
2022-08-20T10:45:43.009Z,45.99
2022-08-20T10:46:42.983Z,46.13
2022-08-20T10:47:42.954Z,46.37
2022-08-20T10:48:42.963Z,45.90
2022-08-20T10:49:42.946Z,45.79
2022-08-20T10:50:42.951Z,45.35
2022-08-20T10:51:42.923Z,45.74
2022-08-20T10:52:42.915Z,45.59
2022-08-20T10:53:42.894Z,45.43
2022-08-20T10:54:42.880Z,45.76
2022-08-20T10:55:42.887Z,47.03
2022-08-20T10:56:42.872Z,48.19
2022-08-20T10:57:43.467Z,47.19
2022-08-20T10:58:42.845Z,46.05
2022-08-20T10:59:42.838Z,45.76
2022-08-20T11:00:42.852Z,45.27
2022-08-20T11:01:42.870Z,45.56
2022-08-20T11:02:42.783Z,45.59
2022-08-20T11:03:42.827Z,45.43
2022-08-20T11:04:42.762Z,45.73
2022-08-20T11:05:42.772Z,46.51
2022-08-20T11:06:42.753Z,46.86
2022-08-20T11:07:54.832Z,47.81
2022-08-20T11:08:43.730Z,48.26
2022-08-20T11:09:42.707Z,47.54
2022-08-20T11:10:42.700Z,47.21
2022-08-20T11:11:42.702Z,47.13
2022-08-20T11:12:45.525Z,47.44
2022-08-20T11:13:42.676Z,48.17
2022-08-20T11:14:42.654Z,47.94
2022-08-20T11:15:42.644Z,48.84
2022-08-20T11:16:42.650Z,48.98
2022-08-20T11:17:42.610Z,48.83
2022-08-20T11:18:47.318Z,49.21
2022-08-20T11:19:43.582Z,49.31
2022-08-20T11:20:42.590Z,49.60
2022-08-20T11:21:42.572Z,50.01
2022-08-20T11:22:42.572Z,49.19
2022-08-20T11:23:42.560Z,48.96
2022-08-20T11:24:42.535Z,48.61
2022-08-20T11:25:42.538Z,49.36
2022-08-20T11:26:42.517Z,49.73
2022-08-20T11:27:42.526Z,50.81
2022-08-20T11:28:42.498Z,50.92
2022-08-20T11:29:42.490Z,50.88
2022-08-20T11:30:42.463Z,50.77
2022-08-20T11:31:42.465Z,50.35
2022-08-20T11:32:42.438Z,50.60
2022-08-20T11:33:42.453Z,50.48
2022-08-20T11:34:42.415Z,49.91
2022-08-20T11:35:48.141Z,49.35
2022-08-20T11:36:43.391Z,48.02
2022-08-20T11:37:42.385Z,48.37
2022-08-20T11:38:42.391Z,48.54
2022-08-20T11:39:42.405Z,47.09
2022-08-20T11:40:42.349Z,48.05
2022-08-20T11:41:42.365Z,48.39
2022-08-20T11:43:04.396Z,49.13
2022-08-20T11:43:51.252Z,49.65
2022-08-20T11:44:43.305Z,49.80
2022-08-20T11:45:42.309Z,49.80
2022-08-20T11:46:42.361Z,50.39
2022-08-20T11:47:42.298Z,50.55
2022-08-20T11:48:42.280Z,50.31
2022-08-20T11:49:42.250Z,50.62
2022-08-20T11:50:42.238Z,50.23
2022-08-20T11:51:49.871Z,50.31
2022-08-20T11:52:43.216Z,50.78
2022-08-20T11:53:42.235Z,51.38
2022-08-20T11:54:42.200Z,52.09
2022-08-20T11:55:42.190Z,52.20
2022-08-20T11:56:42.170Z,52.26
2022-08-20T11:57:42.181Z,52.61
2022-08-20T11:58:42.164Z,52.75
2022-08-20T11:59:42.151Z,52.59
2022-08-20T12:00:42.131Z,52.70
2022-08-20T12:01:42.134Z,52.67
2022-08-20T12:02:43.182Z,53.15
2022-08-20T12:03:42.126Z,53.16
2022-08-20T12:04:42.148Z,53.50
2022-08-20T12:05:42.075Z,53.27
2022-08-20T12:06:42.059Z,53.62
2022-08-20T12:07:42.072Z,52.96
2022-08-20T12:08:42.048Z,52.99
2022-08-20T12:09:43.173Z,53.14
2022-08-20T12:10:43.017Z,52.70
2022-08-20T12:11:42.020Z,51.63
2022-08-20T12:12:41.992Z,51.83
2022-08-20T12:13:48.005Z,52.09
2022-08-20T12:14:43.011Z,52.17
2022-08-20T12:15:41.974Z,51.91
2022-08-20T12:16:41.952Z,52.07
2022-08-20T12:17:41.933Z,52.18
2022-08-20T12:18:41.923Z,52.77
2022-08-20T12:19:41.916Z,53.35
2022-08-20T12:20:41.917Z,53.21
2022-08-20T12:21:41.911Z,53.15
2022-08-20T12:22:41.888Z,53.23
2022-08-20T12:23:41.899Z,53.25
2022-08-20T12:24:41.851Z,53.51
2022-08-20T12:25:41.879Z,53.72
2022-08-20T12:26:41.869Z,53.35
2022-08-20T12:27:41.821Z,53.24
2022-08-20T12:28:41.798Z,52.91
2022-08-20T12:29:41.811Z,53.30
2022-08-20T12:30:41.796Z,53.69
2022-08-20T12:31:41.783Z,54.06
2022-08-20T12:32:41.762Z,53.94
2022-08-20T12:33:41.869Z,54.04
2022-08-20T12:34:41.729Z,54.02
2022-08-20T12:35:41.740Z,53.86
2022-08-20T12:36:41.726Z,54.00
2022-08-20T12:37:41.731Z,54.20
2022-08-20T12:38:41.694Z,54.49
2022-08-20T12:39:41.688Z,53.95
2022-08-20T12:40:41.681Z,54.07
2022-08-20T12:41:41.661Z,54.16
2022-08-20T12:42:41.653Z,53.87
2022-08-20T12:43:41.659Z,52.57
2022-08-20T12:44:41.629Z,52.59
2022-08-20T12:45:41.640Z,52.51
2022-08-20T12:46:41.611Z,52.71
2022-08-20T12:47:41.601Z,52.63
2022-08-20T12:48:41.621Z,53.22
2022-08-20T12:49:41.614Z,53.17
2022-08-20T12:50:41.559Z,53.05
2022-08-20T12:51:41.542Z,53.12
2022-08-20T12:52:41.534Z,52.62